Terminal Aerodrome Forecast
Issued by NWS

Home | Current Version | Previous Version | Text Only | Print | Product List | Glossary On
Versions: 1 2 3 4 5 6 7 8 9 10 11 12
000
FTUS45 KSLC 191740
TAFBCE
TAF
KBCE 191740Z 1918/2018 14012G19KT P6SM BKN200
     FM192000 18015G24KT P6SM BKN150
     FM200200 18008KT P6SM BKN120
     FM201000 15010KT 3SM -SN BR BKN025 OVC050=

USA.gov is the U.S. government's official web portal to all federal, state and local government web resources and services.